createdAt,value
2018-12-08T00:01:34.301Z,84.20
2018-12-08T00:03:09.153Z,84.40
2018-12-08T00:04:44.227Z,83.40
2018-12-08T00:06:19.181Z,84.50
2018-12-08T00:07:54.171Z,84.50
2018-12-08T00:09:29.155Z,84.00
2018-12-08T00:11:04.063Z,83.40
2018-12-08T00:12:39.110Z,83.50
2018-12-08T00:14:14.210Z,83.80
2018-12-08T00:15:49.189Z,83.90
2018-12-08T00:17:24.024Z,83.80
2018-12-08T00:18:59.933Z,84.00
2018-12-08T00:20:34.858Z,82.70
2018-12-08T00:22:09.732Z,83.00
2018-12-08T00:23:44.572Z,81.70
2018-12-08T00:25:19.470Z,80.50
2018-12-08T00:26:54.421Z,81.90
2018-12-08T00:28:29.395Z,80.50
2018-12-08T00:30:14.568Z,80.80
2018-12-08T00:31:49.411Z,80.80
2018-12-08T00:33:24.269Z,81.00
2018-12-08T00:34:59.225Z,79.20
2018-12-08T00:36:36.081Z,80.70
2018-12-08T00:38:10.924Z,80.80
2018-12-08T00:39:45.804Z,81.30
2018-12-08T00:41:20.732Z,80.90
2018-12-08T00:42:55.644Z,80.80
2018-12-08T00:44:30.641Z,79.40
2018-12-08T00:46:05.571Z,80.00
2018-12-08T00:47:40.553Z,79.60
2018-12-08T00:49:15.509Z,80.80
2018-12-08T00:50:50.449Z,81.00
2018-12-08T00:52:25.389Z,82.00
2018-12-08T00:54:05.725Z,82.50
2018-12-08T00:55:40.651Z,83.10
2018-12-08T00:57:15.476Z,82.80
2018-12-08T00:58:50.334Z,83.30
2018-12-08T01:00:25.209Z,83.10
2018-12-08T01:02:00.222Z,82.90
2018-12-08T01:03:35.308Z,82.70
2018-12-08T01:05:10.376Z,81.50
2018-12-08T01:06:45.236Z,82.20
2018-12-08T01:08:21.070Z,82.10
2018-12-08T01:09:56.169Z,81.90
2018-12-08T01:11:31.065Z,81.60
2018-12-08T01:13:05.929Z,82.00
2018-12-08T01:14:40.846Z,81.30
2018-12-08T01:16:15.706Z,81.50
2018-12-08T01:17:50.572Z,80.90
2018-12-08T01:19:25.479Z,81.20
2018-12-08T01:21:00.784Z,81.20
2018-12-08T01:22:35.630Z,81.40
2018-12-08T01:24:10.481Z,80.90
2018-12-08T01:25:45.446Z,81.10
2018-12-08T01:27:21.369Z,81.40
2018-12-08T01:28:56.498Z,81.80
2018-12-08T01:30:31.362Z,80.90
2018-12-08T01:32:06.679Z,81.30
2018-12-08T01:33:41.540Z,81.40
2018-12-08T01:35:17.060Z,81.20
2018-12-08T01:36:52.261Z,81.10
2018-12-08T01:38:27.431Z,81.30
2018-12-08T01:40:02.399Z,81.70
2018-12-08T01:41:37.400Z,81.80
2018-12-08T01:43:12.276Z,81.60
2018-12-08T01:44:47.211Z,81.80
2018-12-08T01:46:22.108Z,81.90
2018-12-08T01:47:57.074Z,82.10
2018-12-08T01:49:31.976Z,82.30
2018-12-08T01:51:06.993Z,82.70
2018-12-08T01:52:41.945Z,82.60
2018-12-08T01:54:16.843Z,82.80
2018-12-08T01:55:52.005Z,83.10
2018-12-08T01:57:26.879Z,82.60
2018-12-08T01:59:01.774Z,82.10
2018-12-08T02:00:36.897Z,82.40
2018-12-08T02:02:11.728Z,82.50
2018-12-08T02:03:46.952Z,82.30
2018-12-08T02:05:21.924Z,82.30
2018-12-08T02:06:56.784Z,82.30
2018-12-08T02:08:31.621Z,82.10
2018-12-08T02:10:08.687Z,83.10
2018-12-08T02:11:43.627Z,82.40
2018-12-08T02:13:18.473Z,82.30
2018-12-08T02:14:53.388Z,82.40
2018-12-08T02:16:28.588Z,82.30
2018-12-08T02:18:03.604Z,82.40
2018-12-08T02:19:38.468Z,82.70
2018-12-08T02:21:13.468Z,82.90
2018-12-08T02:22:48.342Z,83.20
2018-12-08T02:24:23.285Z,83.40
2018-12-08T02:25:58.195Z,83.30
2018-12-08T02:27:33.117Z,83.90
2018-12-08T02:29:07.961Z,84.00
2018-12-08T02:30:43.041Z,83.90
2018-12-08T02:32:17.984Z,83.70
2018-12-08T02:33:52.863Z,83.80
2018-12-08T02:35:27.791Z,83.30
2018-12-08T02:37:02.645Z,83.10
2018-12-08T02:38:37.560Z,82.50
2018-12-08T02:40:12.412Z,81.30
2018-12-08T02:41:47.279Z,80.90
2018-12-08T02:43:22.365Z,81.80
2018-12-08T02:44:57.246Z,80.90
2018-12-08T02:46:32.233Z,81.20
2018-12-08T02:48:07.065Z,80.50
2018-12-08T02:49:42.035Z,81.10
2018-12-08T02:51:17.071Z,80.90
2018-12-08T02:52:51.919Z,80.50
2018-12-08T02:54:27.375Z,80.50
2018-12-08T02:56:02.441Z,80.30
2018-12-08T02:57:37.418Z,80.50
2018-12-08T02:59:12.276Z,81.00
2018-12-08T03:00:47.177Z,81.00
2018-12-08T03:02:22.069Z,81.20
2018-12-08T03:03:56.913Z,81.60
2018-12-08T03:05:32.792Z,81.50
2018-12-08T03:07:07.693Z,81.40
2018-12-08T03:08:42.725Z,81.90
2018-12-08T03:10:18.759Z,82.00
2018-12-08T03:11:53.832Z,81.60
2018-12-08T03:13:28.684Z,82.00
2018-12-08T03:15:03.852Z,82.30
2018-12-08T03:16:38.902Z,82.00
2018-12-08T03:18:13.853Z,81.70
2018-12-08T03:19:48.705Z,82.20
2018-12-08T03:21:23.597Z,81.50
2018-12-08T03:22:58.462Z,82.70
2018-12-08T03:24:33.455Z,82.30
2018-12-08T03:26:08.332Z,82.60
2018-12-08T03:27:43.323Z,82.20
2018-12-08T03:29:18.432Z,82.10
2018-12-08T03:30:53.329Z,81.80
2018-12-08T03:32:29.415Z,82.00
2018-12-08T03:34:04.453Z,81.80
2018-12-08T03:35:39.388Z,81.90
2018-12-08T03:37:14.269Z,82.20
2018-12-08T03:38:49.151Z,82.40
2018-12-08T03:40:24.001Z,82.70
2018-12-08T03:41:58.912Z,82.60
2018-12-08T03:43:33.836Z,82.80
2018-12-08T03:45:08.930Z,82.90
2018-12-08T03:46:43.864Z,83.10
2018-12-08T03:48:18.720Z,83.50
2018-12-08T03:49:53.721Z,83.10
2018-12-08T03:51:28.855Z,83.70
2018-12-08T03:53:03.804Z,83.30
2018-12-08T03:54:38.703Z,83.90
2018-12-08T03:56:13.763Z,83.80
2018-12-08T03:57:48.916Z,83.60
2018-12-08T03:59:23.749Z,84.10
2018-12-08T04:00:58.700Z,84.20
2018-12-08T04:02:33.565Z,85.00
2018-12-08T04:04:08.525Z,85.30
2018-12-08T04:05:43.396Z,86.10
2018-12-08T04:07:18.278Z,86.80
2018-12-08T04:08:53.157Z,87.90
2018-12-08T04:10:28.116Z,87.20
2018-12-08T04:12:03.174Z,87.60
2018-12-08T04:13:38.115Z,86.80
2018-12-08T04:15:13.032Z,88.50
2018-12-08T04:16:48.083Z,89.00
2018-12-08T04:18:23.013Z,88.70
2018-12-08T04:19:57.972Z,89.30
2018-12-08T04:21:32.837Z,87.90
2018-12-08T04:23:07.801Z,88.60
2018-12-08T04:24:43.326Z,88.60
2018-12-08T04:26:18.331Z,89.10
2018-12-08T04:27:53.390Z,89.10
2018-12-08T04:29:28.232Z,89.30
2018-12-08T04:31:03.424Z,89.20
2018-12-08T04:32:38.318Z,88.50
2018-12-08T04:34:13.321Z,89.40
2018-12-08T04:35:48.260Z,88.20
2018-12-08T04:37:23.294Z,88.40
2018-12-08T04:38:58.194Z,88.30
2018-12-08T04:40:33.070Z,89.00
2018-12-08T04:42:08.184Z,89.10
2018-12-08T04:43:43.030Z,87.60
2018-12-08T04:45:18.016Z,86.80
2018-12-08T04:46:53.410Z,87.30
2018-12-08T04:48:28.281Z,88.00
2018-12-08T04:50:03.235Z,87.40
2018-12-08T04:51:38.120Z,86.70
2018-12-08T04:53:12.975Z,87.20
2018-12-08T04:54:47.796Z,86.60
2018-12-08T04:56:22.844Z,87.50
2018-12-08T04:57:57.706Z,86.80
2018-12-08T04:59:32.580Z,86.60
2018-12-08T05:01:07.440Z,87.40
2018-12-08T05:02:42.333Z,87.00
2018-12-08T05:04:17.192Z,86.80
2018-12-08T05:05:52.143Z,86.60
2018-12-08T05:07:27.204Z,86.50
2018-12-08T05:09:02.119Z,86.40
2018-12-08T05:10:38.952Z,86.30
2018-12-08T05:12:14.018Z,86.40
2018-12-08T05:13:48.880Z,87.20
2018-12-08T05:15:23.769Z,87.00
2018-12-08T05:16:58.668Z,86.90
2018-12-08T05:18:33.529Z,87.00
2018-12-08T05:20:08.675Z,86.20
2018-12-08T05:21:43.639Z,86.50
2018-12-08T05:23:19.609Z,86.50
2018-12-08T05:24:54.548Z,86.40
2018-12-08T05:26:30.404Z,85.90
2018-12-08T05:28:05.389Z,85.90
2018-12-08T05:29:40.328Z,86.10
2018-12-08T05:31:15.173Z,86.40
2018-12-08T05:32:50.084Z,87.20
2018-12-08T05:34:24.948Z,85.90
2018-12-08T05:35:59.899Z,85.90
2018-12-08T05:37:34.904Z,85.40
2018-12-08T05:39:09.768Z,85.00
2018-12-08T05:40:44.665Z,85.00
2018-12-08T05:42:19.645Z,84.40
2018-12-08T05:43:54.675Z,84.20
2018-12-08T05:45:29.532Z,83.60
2018-12-08T05:47:04.512Z,83.60
2018-12-08T05:48:39.388Z,83.70
2018-12-08T05:50:14.313Z,83.40
2018-12-08T05:51:49.157Z,83.80
2018-12-08T05:53:24.229Z,83.00
2018-12-08T05:54:59.059Z,83.00
2018-12-08T05:56:33.894Z,83.30
2018-12-08T05:58:08.808Z,82.20
2018-12-08T05:59:43.672Z,83.10
2018-12-08T06:01:18.532Z,81.40
2018-12-08T06:02:53.460Z,82.70
2018-12-08T06:04:28.380Z,83.20
2018-12-08T06:06:03.356Z,82.30
2018-12-08T06:07:38.297Z,82.00
2018-12-08T06:09:13.147Z,81.30
2018-12-08T06:10:47.972Z,81.90
2018-12-08T06:12:22.868Z,81.70
2018-12-08T06:13:57.828Z,82.50
2018-12-08T06:15:32.703Z,81.00
2018-12-08T06:17:07.580Z,81.60
2018-12-08T06:18:42.719Z,81.70
2018-12-08T06:20:17.761Z,81.90
2018-12-08T06:21:52.625Z,81.80
2018-12-08T06:23:28.220Z,82.20
2018-12-08T06:25:03.258Z,81.80
2018-12-08T06:26:50.444Z,82.10
2018-12-08T06:28:28.336Z,82.60
2018-12-08T06:30:03.411Z,82.50
2018-12-08T06:31:38.255Z,82.50
2018-12-08T06:33:13.346Z,82.70
2018-12-08T06:34:48.317Z,82.30
2018-12-08T06:36:23.279Z,83.20
2018-12-08T06:37:58.158Z,82.90
2018-12-08T06:39:33.026Z,82.80
2018-12-08T06:41:07.956Z,82.80
2018-12-08T06:42:43.045Z,83.30
2018-12-08T06:44:18.229Z,82.70
2018-12-08T06:45:53.162Z,82.80
2018-12-08T06:47:28.019Z,83.00
2018-12-08T06:49:02.921Z,82.70
2018-12-08T06:50:37.770Z,84.10
2018-12-08T06:52:12.702Z,83.40
2018-12-08T06:53:47.589Z,83.60
2018-12-08T06:55:22.461Z,83.40
2018-12-08T06:56:57.493Z,83.30
2018-12-08T06:58:32.389Z,83.30
2018-12-08T07:00:07.645Z,83.30
2018-12-08T07:01:42.792Z,83.10
2018-12-08T07:03:17.772Z,82.90
2018-12-08T07:04:53.096Z,82.80
2018-12-08T07:06:27.968Z,82.80
2018-12-08T07:08:02.804Z,83.30
2018-12-08T07:09:37.722Z,83.90
2018-12-08T07:11:12.589Z,82.80
2018-12-08T07:12:47.473Z,82.90
2018-12-08T07:14:22.392Z,83.10
2018-12-08T07:15:57.397Z,82.70
2018-12-08T07:17:32.468Z,82.80
2018-12-08T07:19:07.332Z,82.50
2018-12-08T07:20:42.224Z,82.80
2018-12-08T07:22:17.138Z,82.90
2018-12-08T07:23:52.001Z,82.90
2018-12-08T07:25:26.860Z,81.50
2018-12-08T07:27:01.721Z,81.90
2018-12-08T07:28:36.614Z,81.60
2018-12-08T07:30:11.931Z,82.10
2018-12-08T07:31:46.804Z,82.20
2018-12-08T07:33:21.673Z,80.80
2018-12-08T07:34:56.612Z,81.30
2018-12-08T07:36:31.700Z,81.30
2018-12-08T07:38:06.587Z,80.60
2018-12-08T07:39:42.661Z,80.70
2018-12-08T07:41:17.629Z,81.00
2018-12-08T07:42:52.516Z,81.40
2018-12-08T07:44:27.460Z,79.90
2018-12-08T07:46:02.362Z,80.20
2018-12-08T07:47:37.316Z,79.80
2018-12-08T07:49:12.294Z,81.50
2018-12-08T07:50:47.262Z,80.50
2018-12-08T07:52:22.369Z,80.50
2018-12-08T07:53:57.536Z,79.20
2018-12-08T07:55:32.607Z,79.90
2018-12-08T07:57:07.570Z,79.10
2018-12-08T07:58:42.787Z,80.40
2018-12-08T08:00:18.018Z,79.30
2018-12-08T08:01:53.218Z,79.60
2018-12-08T08:03:28.496Z,78.70
2018-12-08T08:05:03.629Z,79.30
2018-12-08T08:06:38.821Z,78.60
2018-12-08T08:08:13.867Z,78.70
2018-12-08T08:09:48.789Z,79.10
2018-12-08T08:11:23.696Z,79.30
2018-12-08T08:12:58.628Z,78.20
2018-12-08T08:14:33.512Z,79.30
2018-12-08T08:16:08.499Z,78.60
2018-12-08T08:17:43.428Z,79.20
2018-12-08T08:19:18.366Z,78.40
2018-12-08T08:20:53.201Z,78.50
2018-12-08T08:22:28.077Z,78.60
2018-12-08T08:24:03.095Z,78.60
2018-12-08T08:25:38.109Z,79.50
2018-12-08T08:27:12.940Z,79.40
2018-12-08T08:28:47.843Z,78.00
2018-12-08T08:30:22.676Z,77.30
2018-12-08T08:31:57.629Z,77.00
2018-12-08T08:33:32.592Z,77.60
2018-12-08T08:35:08.270Z,78.30
2018-12-08T08:36:44.203Z,78.00
2018-12-08T08:38:19.299Z,78.10
2018-12-08T08:39:54.143Z,78.10
2018-12-08T08:41:29.123Z,78.00
2018-12-08T08:43:04.187Z,77.30
2018-12-08T08:44:39.182Z,77.90
2018-12-08T08:46:14.204Z,77.50
2018-12-08T08:47:49.165Z,77.20
2018-12-08T08:49:24.061Z,78.40
2018-12-08T08:50:58.909Z,75.90
2018-12-08T08:52:33.746Z,77.00
2018-12-08T08:54:08.607Z,76.10
2018-12-08T08:55:43.511Z,76.40
2018-12-08T08:57:18.402Z,76.20
2018-12-08T08:58:53.325Z,76.60
2018-12-08T09:00:28.273Z,76.30
2018-12-08T09:02:03.194Z,75.80
2018-12-08T09:03:38.081Z,76.30
2018-12-08T09:05:13.054Z,77.10
2018-12-08T09:06:48.066Z,76.90
2018-12-08T09:08:23.167Z,75.00
2018-12-08T09:09:58.201Z,76.30
2018-12-08T09:11:33.537Z,75.90
2018-12-08T09:13:08.696Z,75.40
2018-12-08T09:14:43.729Z,75.00
2018-12-08T09:16:20.355Z,75.20
2018-12-08T09:17:55.265Z,75.20
2018-12-08T09:19:30.224Z,74.70
2018-12-08T09:21:05.222Z,73.70
2018-12-08T09:22:40.744Z,74.30
2018-12-08T09:24:15.733Z,73.70
2018-12-08T09:25:50.688Z,74.30
2018-12-08T09:27:26.126Z,73.60
2018-12-08T09:29:01.221Z,73.10
2018-12-08T09:30:36.315Z,74.30
2018-12-08T09:32:11.353Z,73.80
2018-12-08T09:33:46.274Z,73.80
2018-12-08T09:35:21.284Z,70.90
2018-12-08T09:36:56.349Z,71.00
2018-12-08T09:38:31.280Z,72.10
2018-12-08T09:40:07.020Z,72.00
2018-12-08T09:41:41.997Z,72.70
2018-12-08T09:43:16.865Z,71.60
2018-12-08T09:44:51.828Z,71.20
2018-12-08T09:46:26.862Z,72.40
2018-12-08T09:49:43.040Z,68.60
2018-12-08T09:51:17.963Z,71.90
2018-12-08T09:53:04.241Z,70.40
2018-12-08T09:54:39.543Z,70.30
2018-12-08T09:56:14.523Z,70.30
2018-12-08T09:57:49.381Z,68.20
2018-12-08T09:59:24.253Z,70.40
2018-12-08T10:00:59.125Z,69.30
2018-12-08T10:02:34.081Z,67.40
2018-12-08T10:04:08.941Z,68.30
2018-12-08T10:05:43.997Z,69.30
2018-12-08T10:07:18.932Z,68.30
2018-12-08T10:08:54.004Z,69.90
2018-12-08T10:10:28.849Z,67.30
2018-12-08T10:12:03.821Z,68.30
2018-12-08T10:13:38.729Z,69.00
2018-12-08T10:15:13.914Z,69.00
2018-12-08T10:16:49.082Z,68.70
2018-12-08T10:18:23.966Z,67.40
2018-12-08T10:19:58.890Z,68.00
2018-12-08T10:21:33.826Z,66.50
2018-12-08T10:23:08.840Z,66.30
2018-12-08T10:24:43.769Z,64.80
2018-12-08T10:26:18.699Z,65.30
2018-12-08T10:27:53.632Z,64.30
2018-12-08T10:29:28.576Z,66.10
2018-12-08T10:31:03.603Z,66.20
2018-12-08T10:32:38.880Z,66.30
2018-12-08T10:34:13.825Z,64.80
2018-12-08T10:35:48.780Z,65.90
2018-12-08T10:37:23.641Z,65.10
2018-12-08T10:38:58.525Z,65.10
2018-12-08T10:40:33.479Z,62.50
2018-12-08T10:42:08.531Z,65.30
2018-12-08T10:43:43.570Z,63.90
2018-12-08T10:45:18.804Z,62.30
2018-12-08T10:46:53.817Z,63.50
2018-12-08T10:48:28.816Z,62.10
2018-12-08T10:50:04.796Z,62.90
2018-12-08T10:51:41.685Z,63.30
2018-12-08T10:53:18.546Z,61.10
2018-12-08T10:54:53.602Z,60.90
2018-12-08T10:56:28.663Z,60.80
2018-12-08T10:58:04.192Z,61.80
2018-12-08T10:59:39.025Z,62.50
2018-12-08T11:01:21.464Z,60.50
2018-12-08T11:03:00.641Z,61.40
2018-12-08T11:04:35.513Z,60.30
2018-12-08T11:06:10.412Z,60.70
2018-12-08T11:07:45.324Z,60.50
2018-12-08T11:09:20.209Z,60.40
2018-12-08T11:10:55.144Z,60.40
2018-12-08T11:12:30.243Z,61.10
2018-12-08T11:14:05.263Z,62.00
2018-12-08T11:15:40.216Z,60.30
2018-12-08T11:17:15.086Z,60.50
2018-12-08T11:18:50.001Z,62.00
2018-12-08T11:20:24.909Z,59.80
2018-12-08T11:22:00.865Z,59.50
2018-12-08T11:23:35.735Z,59.40
2018-12-08T11:25:10.797Z,60.20
2018-12-08T11:26:46.082Z,61.20
2018-12-08T11:28:21.032Z,62.20
2018-12-08T11:29:55.898Z,61.10
2018-12-08T11:31:30.773Z,60.20
2018-12-08T11:33:05.777Z,61.00
2018-12-08T11:34:40.613Z,61.70
2018-12-08T11:36:15.694Z,61.30
2018-12-08T11:37:50.606Z,61.40
2018-12-08T11:39:25.482Z,61.60
2018-12-08T11:41:00.440Z,60.90
2018-12-08T11:42:35.284Z,60.20
2018-12-08T11:44:10.248Z,59.10
2018-12-08T11:45:45.139Z,59.90
2018-12-08T11:47:20.329Z,60.60
2018-12-08T11:48:56.289Z,60.50
2018-12-08T11:50:31.447Z,59.70
2018-12-08T11:52:06.362Z,59.30
2018-12-08T11:53:41.243Z,58.80
2018-12-08T11:55:16.222Z,58.30
2018-12-08T11:56:52.243Z,58.90
2018-12-08T11:58:27.239Z,58.70
2018-12-08T12:00:02.077Z,59.00
2018-12-08T12:01:37.561Z,58.90
2018-12-08T12:03:12.437Z,59.20
2018-12-08T12:04:47.395Z,59.30
2018-12-08T12:06:22.346Z,59.30
2018-12-08T12:07:57.411Z,59.40
2018-12-08T12:09:32.315Z,59.70
2018-12-08T12:11:07.528Z,59.80
2018-12-08T12:12:42.616Z,59.80
2018-12-08T12:14:17.573Z,59.50
2018-12-08T12:15:52.520Z,59.90
2018-12-08T12:17:27.401Z,60.20
2018-12-08T12:19:03.980Z,59.30
2018-12-08T12:20:39.226Z,59.50
2018-12-08T12:22:14.156Z,60.40
2018-12-08T12:23:49.079Z,60.10
2018-12-08T12:25:24.303Z,60.80
2018-12-08T12:26:59.213Z,58.90
2018-12-08T12:28:34.073Z,59.00
2018-12-08T12:30:09.981Z,59.00
2018-12-08T12:31:45.296Z,59.40
2018-12-08T12:33:20.181Z,58.80
2018-12-08T12:34:55.090Z,59.20
2018-12-08T12:36:29.924Z,59.40
2018-12-08T12:38:07.092Z,58.70
2018-12-08T12:39:41.995Z,58.60
2018-12-08T12:41:16.885Z,58.90
2018-12-08T12:42:51.749Z,59.30
2018-12-08T12:44:26.640Z,59.60
2018-12-08T12:46:01.529Z,59.50
2018-12-08T12:47:36.644Z,59.30
2018-12-08T12:49:11.504Z,59.70
2018-12-08T12:50:46.433Z,59.70
2018-12-08T12:52:21.414Z,59.70
2018-12-08T12:53:56.289Z,59.80
2018-12-08T12:55:31.169Z,60.20
2018-12-08T12:57:06.221Z,60.50
2018-12-08T12:58:41.243Z,60.60
2018-12-08T13:00:16.224Z,60.80
2018-12-08T13:01:51.113Z,60.80
2018-12-08T13:03:26.064Z,60.70
2018-12-08T13:05:01.132Z,60.20
2018-12-08T13:06:36.008Z,60.20
2018-12-08T13:08:10.893Z,60.40
2018-12-08T13:09:45.769Z,60.70
2018-12-08T13:11:20.685Z,60.60
2018-12-08T13:12:55.834Z,60.40
2018-12-08T13:14:30.741Z,60.70
2018-12-08T13:16:05.710Z,60.50
2018-12-08T13:17:40.604Z,60.50
2018-12-08T13:19:15.489Z,60.60
2018-12-08T13:20:50.357Z,61.40
2018-12-08T13:22:25.226Z,60.50
2018-12-08T13:24:00.242Z,60.50
2018-12-08T13:25:35.085Z,60.80
2018-12-08T13:27:10.093Z,61.40
2018-12-08T13:28:45.002Z,61.60
2018-12-08T13:30:20.024Z,61.50
2018-12-08T13:31:54.988Z,61.50
2018-12-08T13:33:29.938Z,61.60
2018-12-08T13:35:08.378Z,61.20
2018-12-08T13:36:43.293Z,61.30
2018-12-08T13:38:18.230Z,61.30
2018-12-08T13:39:53.587Z,61.90
2018-12-08T13:41:28.488Z,61.90
2018-12-08T13:43:03.329Z,62.50
2018-12-08T13:44:39.753Z,62.40
2018-12-08T13:46:14.662Z,62.40
2018-12-08T13:47:49.645Z,62.30
2018-12-08T13:49:24.516Z,62.60
2018-12-08T13:50:59.760Z,63.00
2018-12-08T13:52:34.660Z,62.60
2018-12-08T13:54:16.035Z,62.70
2018-12-08T13:55:50.934Z,62.30
2018-12-08T13:57:25.826Z,62.10
2018-12-08T13:59:00.776Z,62.70
2018-12-08T14:00:35.700Z,63.00
2018-12-08T14:02:10.593Z,62.80
2018-12-08T14:03:45.449Z,62.70
2018-12-08T14:05:20.325Z,63.40
2018-12-08T14:06:56.311Z,63.30
2018-12-08T14:08:31.118Z,62.90
2018-12-08T14:10:07.271Z,63.30
2018-12-08T14:11:43.148Z,63.60
2018-12-08T14:13:18.124Z,63.00
2018-12-08T14:14:54.177Z,63.20
2018-12-08T14:16:29.111Z,63.00
2018-12-08T14:18:04.086Z,64.00
2018-12-08T14:19:39.022Z,63.10
2018-12-08T14:21:13.915Z,63.60
2018-12-08T14:22:49.107Z,63.70
2018-12-08T14:24:24.096Z,63.60
2018-12-08T14:25:58.976Z,64.00
2018-12-08T14:27:33.953Z,64.50
2018-12-08T14:29:08.947Z,64.00
2018-12-08T14:30:43.837Z,64.10
2018-12-08T14:32:18.723Z,64.20
2018-12-08T14:33:53.936Z,64.10
2018-12-08T14:35:28.793Z,64.70
2018-12-08T14:37:03.772Z,64.80
2018-12-08T14:38:38.722Z,64.80
2018-12-08T14:40:13.688Z,64.80
2018-12-08T14:41:48.798Z,65.10
2018-12-08T14:43:23.687Z,65.40
2018-12-08T14:44:58.731Z,65.90
2018-12-08T14:46:33.629Z,66.60
2018-12-08T14:48:08.560Z,67.00
2018-12-08T14:49:43.530Z,67.40
2018-12-08T14:51:18.408Z,67.70
2018-12-08T14:52:54.509Z,67.80
2018-12-08T14:54:29.367Z,67.40
2018-12-08T14:56:04.401Z,67.40
2018-12-08T14:57:39.659Z,68.60
2018-12-08T14:59:14.516Z,68.10
2018-12-08T15:00:49.396Z,68.80
2018-12-08T15:02:24.346Z,68.50
2018-12-08T15:03:59.191Z,69.50
2018-12-08T15:05:34.129Z,69.00
2018-12-08T15:07:09.244Z,70.40
2018-12-08T15:08:44.085Z,70.30
2018-12-08T15:10:19.533Z,69.70
2018-12-08T15:11:54.460Z,70.90
2018-12-08T15:13:29.358Z,70.80
2018-12-08T15:15:04.774Z,71.30
2018-12-08T15:16:39.820Z,71.20
2018-12-08T15:18:14.753Z,71.80
2018-12-08T15:19:49.657Z,72.20
2018-12-08T15:21:25.020Z,71.10
2018-12-08T15:22:59.892Z,71.90
2018-12-08T15:24:34.918Z,72.00
2018-12-08T15:26:09.852Z,73.90
2018-12-08T15:27:44.838Z,73.20
2018-12-08T15:29:19.749Z,72.30
2018-12-08T15:30:54.639Z,73.60
2018-12-08T15:32:29.583Z,73.30
2018-12-08T15:34:04.748Z,72.90
2018-12-08T15:35:39.725Z,72.90
2018-12-08T15:37:14.679Z,73.40
2018-12-08T15:38:49.714Z,72.90
2018-12-08T15:40:24.685Z,72.70
2018-12-08T15:41:59.730Z,73.60
2018-12-08T15:43:34.784Z,73.60
2018-12-08T15:45:11.074Z,73.30
2018-12-08T15:46:46.537Z,73.50
2018-12-08T15:48:21.584Z,73.40
2018-12-08T15:49:56.510Z,73.10
2018-12-08T15:51:31.540Z,73.40
2018-12-08T15:53:06.608Z,73.10
2018-12-08T15:54:41.772Z,73.60
2018-12-08T15:56:16.927Z,73.80
2018-12-08T15:57:51.924Z,73.20
2018-12-08T15:59:26.921Z,74.30
2018-12-08T16:01:02.023Z,74.30
2018-12-08T16:02:39.098Z,74.20
2018-12-08T16:04:13.994Z,74.00
2018-12-08T16:05:49.012Z,74.60
2018-12-08T16:07:23.963Z,75.00
2018-12-08T16:08:58.847Z,74.90
2018-12-08T16:10:33.785Z,75.30
2018-12-08T16:12:08.831Z,75.40
2018-12-08T16:13:43.892Z,75.80
2018-12-08T16:15:18.944Z,75.00
2018-12-08T16:16:54.113Z,76.00
2018-12-08T16:18:29.979Z,75.60
2018-12-08T16:20:07.245Z,76.30
2018-12-08T16:21:42.162Z,76.20
2018-12-08T16:23:17.068Z,75.60
2018-12-08T16:24:52.036Z,75.80
2018-12-08T16:26:27.012Z,76.00
2018-12-08T16:28:02.032Z,75.80
2018-12-08T16:29:36.989Z,76.20
2018-12-08T16:31:12.007Z,76.20
2018-12-08T16:32:46.997Z,75.90
2018-12-08T16:34:22.040Z,75.90
2018-12-08T16:35:57.096Z,76.00
2018-12-08T16:37:32.112Z,75.90
2018-12-08T16:39:07.965Z,75.70
2018-12-08T16:40:42.922Z,75.60
2018-12-08T16:42:17.885Z,75.60
2018-12-08T16:43:52.772Z,75.60
2018-12-08T16:45:27.801Z,75.80
2018-12-08T16:47:02.794Z,75.80
2018-12-08T16:48:37.740Z,75.80
2018-12-08T16:50:12.635Z,75.60
2018-12-08T16:51:47.658Z,75.70
2018-12-08T16:53:22.622Z,75.70
2018-12-08T16:54:57.537Z,75.80
2018-12-08T16:56:32.470Z,76.20
2018-12-08T16:58:07.346Z,75.70
2018-12-08T16:59:42.261Z,76.60
2018-12-08T17:01:17.159Z,76.60
2018-12-08T17:02:52.194Z,77.00
2018-12-08T17:04:27.114Z,76.50
2018-12-08T17:06:01.971Z,76.50
2018-12-08T17:07:36.981Z,76.30
2018-12-08T17:09:12.020Z,76.80
2018-12-08T17:10:47.022Z,76.40
2018-12-08T17:12:21.959Z,76.80
2018-12-08T17:13:56.862Z,76.90
2018-12-08T17:15:31.763Z,77.00
2018-12-08T17:17:06.698Z,77.00
2018-12-08T17:18:41.552Z,77.50
2018-12-08T17:20:16.540Z,77.60
2018-12-08T17:21:51.488Z,77.90
2018-12-08T17:23:26.373Z,77.60
2018-12-08T17:25:01.357Z,77.30
2018-12-08T17:26:36.221Z,78.30
2018-12-08T17:28:11.405Z,78.00
2018-12-08T17:29:46.237Z,78.10
2018-12-08T17:31:21.368Z,78.20
2018-12-08T17:32:56.351Z,78.70
2018-12-08T17:34:31.223Z,79.00
2018-12-08T17:36:06.405Z,79.60
2018-12-08T17:37:41.311Z,79.00
2018-12-08T17:39:17.581Z,78.80
2018-12-08T17:40:52.547Z,79.00
2018-12-08T17:42:27.576Z,78.80
2018-12-08T17:44:03.605Z,78.70
2018-12-08T17:45:38.978Z,78.80
2018-12-08T17:47:13.853Z,79.30
2018-12-08T17:48:48.775Z,78.90
2018-12-08T17:50:23.781Z,78.80
2018-12-08T17:51:58.647Z,78.70
2018-12-08T17:55:14.042Z,78.50
2018-12-08T17:56:49.221Z,78.70
2018-12-08T17:58:25.217Z,78.60
2018-12-08T18:00:01.165Z,78.60
2018-12-08T18:01:37.306Z,79.10
2018-12-08T18:03:12.369Z,78.60
2018-12-08T18:04:47.244Z,78.70
2018-12-08T18:06:22.257Z,78.70
2018-12-08T18:07:57.195Z,78.40
2018-12-08T18:09:32.185Z,78.40
2018-12-08T18:11:07.306Z,78.50
2018-12-08T18:12:42.296Z,78.70
2018-12-08T18:14:17.231Z,78.50
2018-12-08T18:15:52.145Z,78.50
2018-12-08T18:17:27.159Z,78.30
2018-12-08T18:19:02.253Z,78.50
2018-12-08T18:20:37.277Z,78.10
2018-12-08T18:22:12.257Z,78.40
2018-12-08T18:23:47.225Z,78.30
2018-12-08T18:25:22.212Z,77.90
2018-12-08T18:26:57.084Z,78.10
2018-12-08T18:28:32.067Z,78.10
2018-12-08T18:30:07.715Z,78.40
2018-12-08T18:31:42.788Z,78.40
2018-12-08T18:33:17.711Z,78.10
2018-12-08T18:34:52.604Z,78.20
2018-12-08T18:36:27.457Z,77.80
2018-12-08T18:38:02.359Z,77.90
2018-12-08T18:39:37.323Z,77.30
2018-12-08T18:41:12.218Z,77.10
2018-12-08T18:42:47.194Z,77.60
2018-12-08T18:44:22.164Z,77.50
2018-12-08T18:45:57.041Z,77.50
2018-12-08T18:47:32.025Z,77.10
2018-12-08T18:49:07.151Z,77.30
2018-12-08T18:50:43.119Z,76.90
2018-12-08T18:52:18.211Z,76.70
2018-12-08T18:53:53.107Z,76.90
2018-12-08T18:55:28.168Z,76.60
2018-12-08T18:57:03.172Z,76.20
2018-12-08T18:58:38.326Z,75.90
2018-12-08T19:00:14.237Z,76.20
2018-12-08T19:01:49.205Z,75.60
2018-12-08T19:03:24.229Z,75.20
2018-12-08T19:04:59.226Z,76.20
2018-12-08T19:06:34.164Z,75.90
2018-12-08T19:08:09.162Z,75.90
2018-12-08T19:09:44.072Z,75.10
2018-12-08T19:11:19.017Z,75.60
2018-12-08T19:12:53.954Z,76.00
2018-12-08T19:14:28.911Z,75.80
2018-12-08T19:16:04.014Z,75.20
2018-12-08T19:17:38.911Z,74.80
2018-12-08T19:19:13.793Z,75.60
2018-12-08T19:20:48.682Z,74.30
2018-12-08T19:22:23.696Z,74.40
2018-12-08T19:23:58.589Z,74.90
2018-12-08T19:25:33.593Z,75.10
2018-12-08T19:27:08.491Z,74.40
2018-12-08T19:28:43.379Z,74.90
2018-12-08T19:30:18.329Z,74.20
2018-12-08T19:31:53.398Z,74.90
2018-12-08T19:33:28.349Z,74.10
2018-12-08T19:35:03.349Z,74.80
2018-12-08T19:36:38.230Z,74.90
2018-12-08T19:38:15.314Z,74.30
2018-12-08T19:39:50.826Z,74.70
2018-12-08T19:41:27.301Z,74.80
2018-12-08T19:43:02.833Z,74.80
2018-12-08T19:44:38.300Z,74.00
2018-12-08T19:46:13.449Z,73.60
2018-12-08T19:47:48.292Z,73.60
2018-12-08T19:49:23.343Z,74.30
2018-12-08T19:50:58.255Z,73.80
2018-12-08T19:52:33.202Z,74.50
2018-12-08T19:54:10.381Z,74.00
2018-12-08T19:55:45.388Z,74.10
2018-12-08T19:57:20.436Z,74.00
2018-12-08T19:58:55.310Z,73.80
2018-12-08T20:00:30.711Z,73.50
2018-12-08T20:02:05.919Z,72.80
2018-12-08T20:03:41.428Z,72.70
2018-12-08T20:05:16.557Z,72.60
2018-12-08T20:06:51.466Z,72.80
2018-12-08T20:08:26.464Z,73.30
2018-12-08T20:10:01.452Z,73.40
2018-12-08T20:11:36.695Z,73.10
2018-12-08T20:13:11.624Z,73.00
2018-12-08T20:14:46.551Z,72.70
2018-12-08T20:16:21.416Z,72.50
2018-12-08T20:17:56.313Z,73.00
2018-12-08T20:19:31.211Z,73.30
2018-12-08T20:21:06.119Z,73.30
2018-12-08T20:22:41.136Z,73.40
2018-12-08T20:24:15.973Z,73.70
2018-12-08T20:25:50.893Z,73.80
2018-12-08T20:27:26.927Z,74.00
2018-12-08T20:29:01.881Z,74.00